Time;durP1;ratioP1;P1;durP2;ratioP2;P2;SDS_P1;SDS_P2;PMS_P1;PMS_P2;Temp;Humidity;BMP_temperature;BMP_pressure;BME280_temperature;BME280_humidity;BME280_pressure;Samples;Min_cycle;Max_cycle;Signal;HPM_P1;HPM_P2
2022/03/02 00:00:20;;;;;;;23.83;9.83;;;2.70;93.60;;;;;;5137974;27;20073;-66
2022/03/02 00:02:46;;;;;;;17.27;9.43;;;2.80;93.70;;;;;;5136212;27;20068;-65
2022/03/02 00:05:13;;;;;;;18.73;10.10;;;2.80;93.60;;;;;;5136441;27;20034;-66
2022/03/02 00:07:40;;;;;;;21.17;9.95;;;2.80;94.10;;;;;;5138132;27;20016;-66
2022/03/02 00:10:06;;;;;;;19.65;9.43;;;2.80;94.00;;;;;;5137744;27;20031;-66
2022/03/02 00:12:33;;;;;;;20.70;10.18;;;2.90;94.40;;;;;;5137408;27;20106;-66
2022/03/02 00:14:59;;;;;;;17.98;10.20;;;2.90;94.30;;;;;;5137382;27;20023;-66
2022/03/02 00:17:25;;;;;;;17.83;10.30;;;2.90;94.30;;;;;;5138014;27;20413;-66
2022/03/02 00:19:51;;;;;;;17.65;9.95;;;2.90;94.60;;;;;;5136143;27;20619;-65
2022/03/02 00:22:18;;;;;;;21.70;10.33;;;2.90;94.70;;;;;;5137482;27;20023;-66
2022/03/02 00:24:50;;;;;;;20.98;9.85;;;2.80;94.70;;;;;;5137124;27;20415;-65
2022/03/02 00:27:23;;;;;;;20.83;10.18;;;2.80;95.00;;;;;;5137169;27;20027;-66
2022/03/02 00:29:49;;;;;;;18.40;10.15;;;2.90;94.70;;;;;;5137225;27;20027;-64
2022/03/02 00:32:14;;;;;;;20.23;10.75;;;2.80;94.90;;;;;;5137386;27;20031;-65
2022/03/02 00:34:40;;;;;;;21.70;11.57;;;2.80;95.10;;;;;;5137345;27;20034;-65
2022/03/02 00:37:06;;;;;;;18.70;9.83;;;2.70;94.90;;;;;;5137311;27;20023;-66
2022/03/02 00:39:32;;;;;;;19.55;10.10;;;2.70;95.40;;;;;;5135981;27;20024;-67
2022/03/02 00:41:58;;;;;;;19.05;9.40;;;2.60;95.40;;;;;;5137303;27;20034;-66
2022/03/02 00:44:24;;;;;;;20.60;9.82;;;2.70;95.30;;;;;;5137416;27;20031;-65
2022/03/02 00:46:50;;;;;;;19.02;10.43;;;2.60;95.40;;;;;;5137099;27;20027;-66
2022/03/02 00:49:16;;;;;;;18.08;10.40;;;2.60;95.30;;;;;;5135953;27;20023;-65
2022/03/02 00:51:43;;;;;;;25.13;10.75;;;2.60;95.20;;;;;;5138478;27;20372;-66
2022/03/02 00:54:09;;;;;;;19.05;9.30;;;2.60;95.20;;;;;;5140064;27;20030;-65
2022/03/02 00:56:35;;;;;;;21.27;10.30;;;2.50;95.10;;;;;;5136873;27;20391;-66
2022/03/02 00:59:01;;;;;;;17.17;9.87;;;2.50;95.20;;;;;;5136402;27;20026;-65
2022/03/02 01:01:27;;;;;;;21.27;9.60;;;2.50;95.20;;;;;;5137172;27;20094;-66
2022/03/02 01:03:53;;;;;;;17.77;9.93;;;2.50;95.30;;;;;;5136625;27;20019;-66
2022/03/02 01:06:18;;;;;;;20.60;9.77;;;2.50;95.50;;;;;;5136673;27;20054;-66
2022/03/02 01:08:44;;;;;;;21.27;9.88;;;2.50;95.90;;;;;;5135308;27;20026;-66
2022/03/02 01:11:10;;;;;;;20.67;10.38;;;2.40;96.00;;;;;;5135034;27;20030;-65
2022/03/02 01:13:36;;;;;;;17.52;9.63;;;2.40;96.00;;;;;;5136395;27;20026;-65
2022/03/02 01:16:03;;;;;;;25.00;10.80;;;2.40;96.10;;;;;;5136504;27;20098;-66
2022/03/02 01:18:28;;;;;;;24.30;10.75;;;2.40;96.10;;;;;;5136539;27;20257;-67
2022/03/02 01:20:54;;;;;;;18.45;9.63;;;2.40;96.10;;;;;;5136824;27;20087;-66
2022/03/02 01:23:20;;;;;;;17.57;10.03;;;2.40;96.30;;;;;;5136486;27;20026;-66
2022/03/02 01:25:46;;;;;;;22.35;10.48;;;2.40;96.50;;;;;;5142328;27;20027;-66
2022/03/02 01:28:12;;;;;;;29.85;10.13;;;2.40;97.10;;;;;;5142943;27;20079;-66
2022/03/02 01:30:38;;;;;;;19.63;9.87;;;2.50;97.30;;;;;;5138504;27;20030;-66
2022/03/02 01:33:03;;;;;;;21.07;10.97;;;2.40;97.50;;;;;;5138003;27;20035;-65
2022/03/02 01:35:29;;;;;;;20.03;11.13;;;2.40;97.70;;;;;;5136500;27;20023;-66
2022/03/02 01:37:55;;;;;;;24.77;10.20;;;2.40;97.60;;;;;;5135160;27;20019;-66
2022/03/02 01:40:20;;;;;;;21.53;10.70;;;2.30;97.70;;;;;;5135823;27;20288;-66
2022/03/02 01:42:46;;;;;;;19.15;10.15;;;2.30;98.00;;;;;;5136328;27;20033;-66
2022/03/02 01:45:14;;;;;;;19.65;10.45;;;2.20;98.20;;;;;;5134946;27;20082;-65
2022/03/02 01:47:40;;;;;;;21.20;10.93;;;2.10;98.30;;;;;;5136093;27;20023;-66
2022/03/02 01:50:08;;;;;;;19.52;10.85;;;2.10;98.50;;;;;;5136118;27;20019;-65
2022/03/02 01:52:34;;;;;;;18.35;10.45;;;2.00;98.80;;;;;;5135631;27;20030;-66
2022/03/02 01:55:00;;;;;;;20.60;10.40;;;1.90;99.00;;;;;;5135779;27;20027;-65
2022/03/02 01:57:27;;;;;;;23.35;10.95;;;1.90;99.20;;;;;;5135799;27;20122;-66
2022/03/02 01:59:54;;;;;;;18.65;10.43;;;1.90;99.50;;;;;;5134650;27;20035;-66
2022/03/02 02:02:19;;;;;;;19.27;10.35;;;1.80;99.50;;;;;;5135838;27;20019;-66
2022/03/02 02:04:45;;;;;;;21.57;10.60;;;1.80;99.90;;;;;;5136115;27;20076;-65
2022/03/02 02:07:11;;;;;;;20.57;10.47;;;1.80;99.90;;;;;;5136016;27;20027;-65
2022/03/02 02:09:36;;;;;;;19.38;9.82;;;1.80;99.90;;;;;;5135299;27;20027;-66
2022/03/02 02:12:02;;;;;;;17.83;9.40;;;1.80;99.90;;;;;;5139224;27;20079;-65
2022/03/02 02:14:28;;;;;;;23.05;10.63;;;1.80;99.90;;;;;;5137493;27;20674;-67
2022/03/02 02:16:54;;;;;;;17.43;9.70;;;1.80;99.90;;;;;;5135762;27;20031;-66
2022/03/02 02:19:20;;;;;;;19.58;9.77;;;1.80;99.90;;;;;;5135504;27;20023;-65
2022/03/02 02:21:48;;;;;;;17.90;9.55;;;1.70;99.90;;;;;;5134152;27;20019;-65
2022/03/02 02:24:15;;;;;;;17.88;10.30;;;1.70;99.90;;;;;;5135639;27;20027;-66
2022/03/02 02:26:41;;;;;;;18.25;9.75;;;1.70;99.90;;;;;;5134374;27;20508;-66
2022/03/02 02:29:07;;;;;;;20.07;10.00;;;1.70;99.90;;;;;;5137260;27;20070;-65
2022/03/02 02:31:33;;;;;;;18.48;10.30;;;1.70;99.90;;;;;;5134662;27;20031;-64
2022/03/02 02:33:59;;;;;;;16.75;10.18;;;1.70;99.90;;;;;;5134890;27;20027;-65
2022/03/02 02:36:25;;;;;;;18.40;9.77;;;1.70;99.90;;;;;;5135118;27;20023;-65
2022/03/02 02:38:51;;;;;;;18.83;9.63;;;1.70;99.90;;;;;;5135476;27;20391;-65
2022/03/02 02:41:18;;;;;;;23.20;9.57;;;1.70;99.90;;;;;;5134483;27;20027;-66
2022/03/02 02:43:44;;;;;;;17.88;9.30;;;1.80;99.90;;;;;;5133509;27;20193;-66
2022/03/02 02:46:11;;;;;;;18.27;10.20;;;1.90;99.90;;;;;;5134844;27;20023;-66
2022/03/02 02:48:37;;;;;;;21.95;9.45;;;1.80;99.90;;;;;;5133344;27;20256;-64
2022/03/02 02:51:04;;;;;;;17.20;9.35;;;1.80;99.90;;;;;;5133133;27;20043;-65
2022/03/02 02:53:30;;;;;;;13.95;8.55;;;1.70;99.90;;;;;;5133323;27;20544;-65
2022/03/02 02:55:56;;;;;;;18.70;8.93;;;1.70;99.90;;;;;;5133137;27;20027;-66
2022/03/02 02:58:22;;;;;;;17.48;8.75;;;1.70;99.90;;;;;;5133377;27;20030;-66
2022/03/02 03:00:49;;;;;;;18.25;9.35;;;1.70;99.90;;;;;;5134837;27;20114;-66
2022/03/02 03:03:15;;;;;;;18.13;9.88;;;1.60;99.90;;;;;;5134540;27;20042;-65
2022/03/02 03:05:44;;;;;;;16.70;9.63;;;1.60;99.90;;;;;;5133010;27;20072;-65
2022/03/02 03:08:30;;;;;;;13.77;8.95;;;1.60;99.90;;;;;;5134748;27;20027;-65
2022/03/02 03:10:55;;;;;;;15.15;8.48;;;2.10;99.90;;;;;;5134213;27;20487;-66
2022/03/02 03:13:21;;;;;;;14.27;8.63;;;2.10;99.90;;;;;;5134321;27;20071;-66
2022/03/02 03:15:47;;;;;;;23.47;9.63;;;2.00;99.90;;;;;;5134491;27;20479;-66
2022/03/02 03:18:12;;;;;;;20.97;9.57;;;1.90;99.90;;;;;;5134591;27;20023;-66
2022/03/02 03:20:38;;;;;;;15.93;8.67;;;1.80;99.90;;;;;;5134510;27;20068;-66
2022/03/02 03:23:05;;;;;;;15.30;8.77;;;1.80;99.90;;;;;;5138908;27;20495;-65
2022/03/02 03:25:34;;;;;;;16.60;8.52;;;1.70;99.90;;;;;;5138713;27;20026;-65
2022/03/02 03:28:01;;;;;;;16.73;9.43;;;1.70;99.90;;;;;;5143102;27;20087;-66
2022/03/02 03:30:29;;;;;;;17.80;8.80;;;1.60;99.90;;;;;;5139460;27;20120;-64
2022/03/02 03:32:59;;;;;;;19.88;9.25;;;1.60;99.90;;;;;;5138171;27;20027;-65
2022/03/02 03:35:26;;;;;;;16.70;8.90;;;1.60;99.90;;;;;;5136943;27;20031;-65
2022/03/02 03:37:52;;;;;;;16.92;9.20;;;1.60;99.90;;;;;;5136832;27;20031;-66
2022/03/02 03:40:20;;;;;;;16.27;8.43;;;1.50;99.90;;;;;;5138059;27;20494;-66
2022/03/02 03:42:47;;;;;;;19.42;10.18;;;1.50;99.90;;;;;;5138370;27;20479;-66
2022/03/02 03:45:13;;;;;;;20.75;9.18;;;1.50;99.90;;;;;;5138353;27;20528;-65
2022/03/02 03:47:40;;;;;;;18.42;9.55;;;1.50;99.90;;;;;;5137011;27;20110;-65
2022/03/02 03:50:07;;;;;;;15.85;8.48;;;1.50;99.90;;;;;;5136915;27;20026;-65
2022/03/02 03:52:33;;;;;;;16.75;8.93;;;1.50;99.90;;;;;;5136769;27;20031;-65
2022/03/02 03:54:59;;;;;;;19.27;9.48;;;1.70;99.90;;;;;;5138197;27;20027;-66
2022/03/02 03:57:25;;;;;;;17.87;9.07;;;1.60;99.90;;;;;;5138138;27;20062;-65
2022/03/02 03:59:50;;;;;;;17.50;9.40;;;1.70;99.90;;;;;;5138026;27;20472;-66
2022/03/02 04:02:16;;;;;;;21.83;9.43;;;1.60;99.90;;;;;;5137821;27;20027;-66
2022/03/02 04:04:41;;;;;;;16.13;9.47;;;1.60;99.90;;;;;;5138260;27;20034;-67
2022/03/02 04:07:07;;;;;;;15.97;8.73;;;1.50;99.90;;;;;;5137592;27;20035;-66
2022/03/02 04:09:33;;;;;;;15.60;9.20;;;1.50;99.90;;;;;;5137901;27;20460;-64
2022/03/02 04:11:58;;;;;;;18.83;9.67;;;1.40;99.90;;;;;;5137530;27;20027;-66
2022/03/02 04:14:25;;;;;;;17.90;9.67;;;1.40;99.90;;;;;;5137269;27;20065;-67
2022/03/02 04:16:51;;;;;;;;;;;1.40;99.90;;;;;;5138137;27;20106;-67
2022/03/02 04:19:16;;;;;;;17.60;9.77;;;1.30;99.90;;;;;;5137381;27;19996;-64
2022/03/02 04:21:42;;;;;;;20.00;9.63;;;1.30;99.90;;;;;;5137295;27;20129;-65
2022/03/02 04:24:08;;;;;;;18.53;9.23;;;1.30;99.90;;;;;;5137940;27;20038;-65
2022/03/02 04:26:33;;;;;;;17.07;10.17;;;1.20;99.90;;;;;;5137806;27;20119;-66
2022/03/02 04:28:59;;;;;;;24.50;10.77;;;1.20;99.90;;;;;;5137556;27;20020;-66
2022/03/02 04:31:24;;;;;;;18.93;9.83;;;1.10;99.90;;;;;;5137669;27;20063;-66
2022/03/02 04:33:50;;;;;;;18.60;9.73;;;1.00;99.90;;;;;;5136839;27;20027;-65
2022/03/02 04:36:16;;;;;;;14.93;9.30;;;1.00;99.90;;;;;;5138286;27;20023;-65
2022/03/02 04:38:41;;;;;;;21.93;10.30;;;1.10;99.90;;;;;;5137748;27;20260;-65
2022/03/02 04:41:07;;;;;;;20.83;10.13;;;1.10;99.90;;;;;;5138158;27;20031;-64
2022/03/02 04:43:33;;;;;;;19.73;10.40;;;1.10;99.90;;;;;;5139892;27;20047;-66
2022/03/02 04:45:59;;;;;;;18.10;9.67;;;1.20;99.90;;;;;;5137892;27;20476;-66
2022/03/02 04:48:24;;;;;;;17.92;10.02;;;1.20;99.90;;;;;;5137098;27;20027;-65
2022/03/02 04:50:50;;;;;;;18.63;9.53;;;1.20;99.90;;;;;;5136841;27;20030;-66
2022/03/02 04:53:16;;;;;;;18.67;9.32;;;1.10;99.90;;;;;;5136778;27;20034;-65
2022/03/02 04:55:44;;;;;;;18.48;9.45;;;1.10;99.90;;;;;;5135478;27;20027;-66
2022/03/02 04:58:11;;;;;;;18.48;9.48;;;1.10;99.90;;;;;;5135748;27;20070;-65
2022/03/02 05:00:37;;;;;;;20.85;9.85;;;1.10;99.90;;;;;;5136687;27;20517;-65
2022/03/02 05:03:05;;;;;;;20.85;9.27;;;1.10;99.90;;;;;;5137332;27;20034;-65
2022/03/02 05:05:34;;;;;;;17.55;9.38;;;1.10;99.90;;;;;;5136814;27;20077;-65
2022/03/02 05:08:07;;;;;;;19.45;9.55;;;1.20;99.90;;;;;;5136936;27;20068;-66
2022/03/02 05:10:33;;;;;;;18.25;10.13;;;1.20;99.90;;;;;;5136747;27;20506;-65
2022/03/02 05:12:59;;;;;;;18.97;9.00;;;1.10;99.90;;;;;;5136683;27;20027;-65
2022/03/02 05:15:25;;;;;;;18.33;10.30;;;1.10;99.90;;;;;;5136773;27;20288;-64
2022/03/02 05:17:51;;;;;;;20.05;9.52;;;1.10;99.90;;;;;;5135543;27;20027;-65
2022/03/02 05:20:19;;;;;;;19.88;10.43;;;1.10;99.90;;;;;;5136485;27;20498;-64
2022/03/02 05:22:47;;;;;;;22.02;10.52;;;1.10;99.90;;;;;;5135276;27;20030;-65
2022/03/02 05:25:13;;;;;;;19.85;10.85;;;1.10;99.90;;;;;;5136790;27;20059;-64
2022/03/02 05:27:46;;;;;;;;;;;1.10;99.90;;;;;;5137071;27;20137;-65
2022/03/02 05:30:15;;;;;;;35.13;11.57;;;1.10;99.90;;;;;;5138025;27;19903;-65
2022/03/02 05:32:41;;;;;;;21.65;10.13;;;1.10;99.90;;;;;;5138419;27;20058;-64
2022/03/02 05:35:07;;;;;;;22.05;10.50;;;1.10;99.90;;;;;;5135804;27;20181;-64
2022/03/02 05:37:34;;;;;;;22.10;10.48;;;1.10;99.90;;;;;;5135710;27;20027;-64
2022/03/02 05:40:02;;;;;;;24.67;10.30;;;1.10;99.90;;;;;;5137071;27;20468;-64
2022/03/02 05:42:28;;;;;;;22.33;10.82;;;1.10;99.90;;;;;;5138262;27;20387;-64
2022/03/02 05:44:53;;;;;;;19.53;9.50;;;1.00;99.90;;;;;;5134716;27;20035;-64
2022/03/02 05:47:19;;;;;;;18.83;9.73;;;1.10;99.90;;;;;;5136354;27;20080;-64
2022/03/02 05:49:45;;;;;;;20.87;10.07;;;1.00;99.90;;;;;;5136617;27;20080;-64
2022/03/02 05:52:10;;;;;;;18.30;9.93;;;1.00;99.90;;;;;;5135863;27;20031;-64
2022/03/02 05:54:36;;;;;;;22.67;10.20;;;1.00;99.90;;;;;;5136228;27;20030;-64
2022/03/02 05:57:02;;;;;;;20.73;10.33;;;1.00;99.90;;;;;;5136048;27;20511;-64
2022/03/02 05:59:28;;;;;;;23.63;10.03;;;0.90;99.90;;;;;;5140112;27;20028;-65
2022/03/02 06:01:53;;;;;;;19.80;10.02;;;0.90;99.90;;;;;;5136910;27;20023;-64
2022/03/02 06:04:19;;;;;;;21.53;10.83;;;0.80;99.90;;;;;;5135627;27;20030;-64
2022/03/02 06:06:44;;;;;;;19.83;10.13;;;0.70;99.90;;;;;;5135981;27;20516;-65
2022/03/02 06:09:11;;;;;;;18.73;9.97;;;0.70;99.90;;;;;;5136014;27;20268;-64
2022/03/02 06:11:38;;;;;;;24.63;11.10;;;0.60;99.90;;;;;;5136064;27;20072;-64
2022/03/02 06:14:04;;;;;;;23.88;11.50;;;0.60;99.90;;;;;;5136304;27;20027;-67
2022/03/02 06:16:30;;;;;;;22.13;10.30;;;0.60;99.90;;;;;;5135796;27;20019;-65
2022/03/02 06:18:56;;;;;;;26.48;11.75;;;0.60;99.90;;;;;;5135596;27;20470;-65
2022/03/02 06:21:27;;;;;;;22.45;10.23;;;0.70;99.90;;;;;;5133432;27;20160;-65
2022/03/02 06:23:53;;;;;;;19.08;10.13;;;0.70;99.90;;;;;;5135525;27;20031;-65
2022/03/02 06:26:21;;;;;;;23.70;10.07;;;0.70;99.90;;;;;;5134451;27;20024;-64
2022/03/02 06:28:47;;;;;;;27.80;11.65;;;0.70;99.90;;;;;;5134962;27;20507;-63
2022/03/02 06:31:15;;;;;;;24.00;10.35;;;0.80;99.90;;;;;;5134985;27;20019;-63
2022/03/02 06:33:41;;;;;;;22.60;11.07;;;0.70;99.90;;;;;;5134203;27;20039;-64
2022/03/02 06:36:07;;;;;;;21.70;10.93;;;0.80;99.90;;;;;;5138255;27;20109;-64
2022/03/02 06:38:33;;;;;;;26.27;11.23;;;0.80;99.90;;;;;;5134640;27;20023;-64
2022/03/02 06:41:24;;;;;;;20.35;10.85;;;0.80;99.90;;;;;;5134425;27;20042;-65
2022/03/02 06:44:07;;;;;;;21.33;11.10;;;0.80;99.90;;;;;;5134748;27;20023;-65
2022/03/02 06:46:42;;;;;;;24.35;10.60;;;0.80;99.90;;;;;;5135085;27;20019;-64
2022/03/02 06:49:26;;;;;;;22.05;10.40;;;0.90;99.90;;;;;;5135084;27;20027;-65
2022/03/02 06:52:00;;;;;;;20.25;10.50;;;0.90;99.90;;;;;;5134827;27;20036;-65
2022/03/02 06:54:30;;;;;;;20.40;10.90;;;0.90;99.90;;;;;;5134863;27;20084;-64
2022/03/02 06:56:57;;;;;;;21.70;10.07;;;0.90;99.90;;;;;;5134250;27;20076;-64
2022/03/02 06:59:38;;;;;;;23.08;10.30;;;0.90;99.90;;;;;;5134995;27;20047;-64
2022/03/02 07:02:05;;;;;;;22.92;10.68;;;0.90;99.90;;;;;;5135136;27;20023;-64
2022/03/02 07:04:43;;;;;;;21.23;10.20;;;1.20;99.90;;;;;;5134313;27;20019;-66
2022/03/02 07:07:11;;;;;;;20.23;10.80;;;1.30;99.90;;;;;;5134519;27;20038;-66
2022/03/02 07:09:37;;;;;;;21.17;10.27;;;1.30;99.90;;;;;;5134646;27;20029;-65
2022/03/02 07:12:05;;;;;;;24.92;10.55;;;1.40;99.90;;;;;;5134244;27;20031;-65
2022/03/02 07:14:32;;;;;;;23.02;12.73;;;1.40;99.90;;;;;;5134524;27;20023;-65
2022/03/02 07:17:00;;;;;;;21.25;11.57;;;1.40;99.90;;;;;;5135231;27;20015;-64
2022/03/02 07:19:27;;;;;;;18.13;10.05;;;1.40;99.90;;;;;;5134336;27;20015;-65
2022/03/02 07:21:53;;;;;;;;;;;1.50;99.90;;;;;;5134638;27;20038;-65
2022/03/02 07:24:22;;;;;;;18.40;10.02;;;1.60;99.90;;;;;;5134830;27;19911;-65
2022/03/02 07:26:54;;;;;;;19.20;10.70;;;1.70;99.90;;;;;;5138186;27;20019;-65
2022/03/02 07:29:21;;;;;;;20.60;10.27;;;1.80;99.90;;;;;;5141822;27;20030;-65
2022/03/02 07:31:51;;;;;;;18.50;10.52;;;1.90;99.90;;;;;;5135784;27;20020;-65
2022/03/02 07:34:17;;;;;;;28.48;11.57;;;2.00;99.90;;;;;;5133656;27;20027;-66
2022/03/02 07:36:43;;;;;;;20.33;11.13;;;2.10;99.90;;;;;;5134109;27;20019;-65
2022/03/02 07:39:10;;;;;;;27.48;10.32;;;2.30;99.90;;;;;;5134145;27;20476;-65
2022/03/02 07:41:36;;;;;;;19.40;10.77;;;2.40;99.90;;;;;;5138044;27;20056;-65
2022/03/02 07:44:03;;;;;;;19.98;9.98;;;2.40;99.90;;;;;;5137988;27;20055;-64
2022/03/02 07:46:29;;;;;;;22.77;10.90;;;2.40;99.90;;;;;;5133611;28;20023;-66
2022/03/02 07:48:57;;;;;;;19.70;10.70;;;2.60;99.90;;;;;;5134108;28;20026;-64
2022/03/02 07:51:24;;;;;;;18.60;10.00;;;2.80;99.90;;;;;;5134291;27;20257;-66
2022/03/02 07:53:51;;;;;;;20.00;10.52;;;3.20;99.90;;;;;;5134400;27;20533;-65
2022/03/02 07:56:18;;;;;;;19.77;10.60;;;3.30;99.90;;;;;;5133970;27;20028;-65
2022/03/02 07:58:44;;;;;;;21.90;11.05;;;3.20;99.90;;;;;;5133906;27;20023;-66
2022/03/02 08:01:16;;;;;;;20.52;10.55;;;3.10;99.90;;;;;;5132454;28;20023;-65
2022/03/02 08:03:43;;;;;;;21.42;11.10;;;3.10;99.90;;;;;;5133793;27;20392;-66
2022/03/02 08:06:09;;;;;;;20.15;11.07;;;3.10;99.90;;;;;;5134008;27;20023;-66
2022/03/02 08:08:35;;;;;;;21.05;11.00;;;3.20;99.90;;;;;;5136307;27;20201;-64
2022/03/02 08:11:03;;;;;;;21.58;11.20;;;3.20;99.90;;;;;;5137412;27;20031;-67
2022/03/02 08:13:34;;;;;;;24.85;11.15;;;3.30;99.90;;;;;;5136220;27;20019;-67
2022/03/02 08:16:00;;;;;;;22.95;11.13;;;3.50;99.90;;;;;;5138137;27;20026;-66
2022/03/02 08:18:26;;;;;;;21.08;10.30;;;3.50;99.90;;;;;;5138809;27;20375;-67
2022/03/02 08:20:55;;;;;;;21.60;11.25;;;3.60;99.90;;;;;;5137821;27;20030;-66
2022/03/02 08:23:22;;;;;;;20.45;10.68;;;3.60;99.80;;;;;;5136738;27;20015;-67
2022/03/02 08:25:52;;;;;;;20.45;10.93;;;3.40;99.90;;;;;;5137624;27;20494;-67
2022/03/02 08:28:19;;;;;;;23.15;11.32;;;3.40;99.90;;;;;;5138341;27;20031;-68
2022/03/02 08:30:48;;;;;;;22.73;11.80;;;3.50;99.90;;;;;;5138259;27;20029;-66
2022/03/02 08:33:19;;;;;;;17.40;10.45;;;3.50;99.90;;;;;;5137315;27;20413;-67
2022/03/02 08:35:49;;;;;;;26.63;10.88;;;3.50;99.90;;;;;;5138639;27;20031;-66
2022/03/02 08:38:15;;;;;;;23.95;10.57;;;3.50;99.90;;;;;;5138001;27;20046;-66
2022/03/02 08:40:43;;;;;;;35.63;11.63;;;3.70;99.80;;;;;;5136068;27;20119;-67
2022/03/02 08:43:08;;;;;;;26.35;11.23;;;3.70;99.70;;;;;;5137373;27;20015;-68
2022/03/02 08:45:34;;;;;;;22.27;10.13;;;3.60;99.60;;;;;;5142577;27;20041;-68
2022/03/02 08:48:01;;;;;;;19.43;10.87;;;3.50;99.90;;;;;;5135670;27;20054;-67
2022/03/02 08:50:28;;;;;;;19.58;10.68;;;3.50;99.90;;;;;;5136620;27;20264;-65
2022/03/02 08:52:54;;;;;;;;;;;3.70;99.90;;;;;;5137244;27;20053;-65
2022/03/02 08:55:20;;;;;;;19.13;9.77;;;3.90;99.90;;;;;;5135353;27;19907;-67
2022/03/02 08:57:46;;;;;;;22.27;11.20;;;4.00;99.40;;;;;;5135382;27;20031;-66
2022/03/02 09:00:14;;;;;;;25.10;12.55;;;4.00;99.10;;;;;;5135375;27;20019;-65
2022/03/02 09:02:41;;;;;;;24.70;10.25;;;4.00;99.20;;;;;;5136713;27;20019;-65
2022/03/02 09:05:07;;;;;;;17.75;10.43;;;4.10;99.20;;;;;;5136593;27;20027;-66
2022/03/02 09:07:33;;;;;;;17.30;10.18;;;4.10;98.70;;;;;;5136985;27;20019;-65
2022/03/02 09:10:00;;;;;;;21.35;10.00;;;4.10;98.00;;;;;;5136907;27;20023;-68
2022/03/02 09:12:26;;;;;;;15.10;8.82;;;4.10;97.80;;;;;;5136543;27;20031;-66
2022/03/02 09:14:53;;;;;;;18.20;10.13;;;4.10;97.80;;;;;;5135620;27;20034;-68
2022/03/02 09:17:24;;;;;;;24.13;10.43;;;4.10;97.70;;;;;;5139365;27;20448;-68
2022/03/02 09:19:50;;;;;;;16.90;10.07;;;4.00;97.50;;;;;;5135840;27;20016;-65
2022/03/02 09:22:17;;;;;;;22.98;11.35;;;3.90;97.60;;;;;;5136175;27;20031;-66
2022/03/02 09:24:44;;;;;;;16.70;9.40;;;3.80;97.80;;;;;;5136152;27;20027;-65
2022/03/02 09:27:11;;;;;;;17.08;9.73;;;3.80;97.80;;;;;;5137387;27;20029;-64
2022/03/02 09:29:42;;;;;;;19.25;11.40;;;3.80;97.70;;;;;;5136236;27;20098;-66
2022/03/02 09:32:09;;;;;;;18.98;10.52;;;3.80;97.20;;;;;;5134560;27;20391;-64
2022/03/02 09:34:44;;;;;;;20.58;10.07;;;3.90;97.00;;;;;;5134611;27;20488;-65
2022/03/02 09:37:13;;;;;;;19.13;9.60;;;4.00;96.80;;;;;;5135876;27;20164;-65
2022/03/02 09:39:38;;;;;;;21.85;9.60;;;4.10;96.50;;;;;;5134454;27;20028;-65
2022/03/02 09:42:10;;;;;;;15.47;8.80;;;4.00;96.50;;;;;;5135746;27;20030;-64
2022/03/02 09:44:48;;;;;;;20.52;9.73;;;4.10;96.80;;;;;;5136079;27;20446;-65
2022/03/02 09:47:19;;;;;;;17.05;9.90;;;4.10;96.90;;;;;;5135676;27;20379;-67
2022/03/02 09:49:53;;;;;;;15.15;9.10;;;4.30;96.70;;;;;;5136139;27;20019;-66
2022/03/02 09:52:20;;;;;;;18.45;10.18;;;4.40;96.70;;;;;;5135705;27;20102;-66
2022/03/02 09:54:56;;;;;;;19.40;10.77;;;4.60;96.40;;;;;;5135408;27;20043;-66
2022/03/02 09:57:22;;;;;;;20.33;9.40;;;4.80;95.30;;;;;;5135756;27;20026;-64
2022/03/02 09:59:51;;;;;;;18.83;10.07;;;4.80;95.10;;;;;;5135411;27;20024;-66
2022/03/02 10:02:36;;;;;;;24.13;11.40;;;4.80;95.20;;;;;;5134033;27;20163;-66
2022/03/02 10:05:11;;;;;;;20.23;9.88;;;5.00;95.20;;;;;;5135833;27;20068;-65
2022/03/02 10:07:40;;;;;;;21.83;11.52;;;5.10;94.40;;;;;;5133728;27;20034;-65
2022/03/02 10:10:17;;;;;;;19.42;10.45;;;5.10;93.80;;;;;;5137215;27;20087;-66
2022/03/02 10:12:43;;;;;;;23.10;10.20;;;5.10;93.70;;;;;;5135757;27;20098;-66
2022/03/02 10:15:13;;;;;;;20.27;10.48;;;5.20;93.80;;;;;;5135059;27;20031;-66
2022/03/02 10:17:41;;;;;;;18.10;9.43;;;5.40;93.60;;;;;;5135781;27;20470;-66
2022/03/02 10:20:10;;;;;;;18.92;10.05;;;5.60;92.60;;;;;;5137425;27;20114;-66
2022/03/02 10:22:35;;;;;;;20.48;10.30;;;5.90;91.90;;;;;;5137382;27;20027;-66
2022/03/02 10:25:07;;;;;;;20.37;9.80;;;6.10;91.50;;;;;;5137209;27;20023;-66
2022/03/02 10:27:35;;;;;;;19.73;10.95;;;6.50;90.90;;;;;;5135531;27;20023;-66
2022/03/02 10:30:09;;;;;;;19.90;10.50;;;6.80;89.80;;;;;;5134508;27;20027;-66
2022/03/02 10:32:39;;;;;;;19.92;11.07;;;6.80;89.40;;;;;;5134130;27;20034;-67
2022/03/02 10:35:13;;;;;;;23.00;11.00;;;6.70;89.60;;;;;;5134683;27;20559;-66
2022/03/02 10:37:44;;;;;;;20.05;11.30;;;6.60;89.40;;;;;;5135506;27;20523;-66
2022/03/02 10:40:17;;;;;;;21.98;10.82;;;6.60;88.30;;;;;;5135057;27;20068;-66
2022/03/02 10:42:51;;;;;;;19.92;10.85;;;6.60;88.20;;;;;;5136168;27;20027;-66
2022/03/02 10:45:23;;;;;;;21.48;10.45;;;6.80;87.20;;;;;;5135604;27;20023;-66
2022/03/02 10:48:11;;;;;;;18.00;10.07;;;6.80;86.80;;;;;;5134745;27;20092;-66
2022/03/02 10:50:39;;;;;;;17.13;10.18;;;7.00;85.80;;;;;;5134623;27;20388;-66
2022/03/02 10:53:07;;;;;;;17.50;9.68;;;7.00;84.00;;;;;;5133156;27;20030;-66
2022/03/02 10:55:34;;;;;;;20.23;11.02;;;6.90;85.20;;;;;;5134366;27;20022;-66
2022/03/02 10:58:03;;;;;;;19.77;10.55;;;7.10;85.70;;;;;;5134423;27;20027;-65
2022/03/02 11:00:29;;;;;;;17.23;10.75;;;7.40;83.90;;;;;;5133102;27;20058;-66
2022/03/02 11:02:59;;;;;;;18.73;10.97;;;7.70;82.00;;;;;;5134499;27;20030;-66
2022/03/02 11:05:28;;;;;;;17.90;10.30;;;8.00;81.30;;;;;;5134598;27;20027;-66
2022/03/02 11:07:55;;;;;;;16.83;9.68;;;7.90;79.70;;;;;;5133026;27;20491;-66
2022/03/02 11:10:23;;;;;;;18.13;10.18;;;7.80;80.60;;;;;;5133057;27;20072;-66
2022/03/02 11:12:50;;;;;;;17.67;9.57;;;7.90;80.20;;;;;;5132868;27;20031;-66
2022/03/02 11:15:17;;;;;;;18.13;11.52;;;7.70;79.60;;;;;;5133973;27;20050;-66
2022/03/02 11:18:00;;;;;;;19.73;11.40;;;7.60;79.40;;;;;;5134029;27;20075;-65
2022/03/02 11:20:29;;;;;;;17.48;10.50;;;7.70;79.40;;;;;;5132692;27;20021;-66
2022/03/02 11:23:00;;;;;;;20.17;11.95;;;8.00;79.10;;;;;;5132561;28;20031;-66
2022/03/02 11:25:50;;;;;;;18.77;10.65;;;8.30;78.10;;;;;;5132619;28;20030;-67
2022/03/02 11:28:24;;;;;;;18.85;10.68;;;8.40;76.90;;;;;;5134012;27;20026;-66
2022/03/02 11:30:54;;;;;;;22.73;11.73;;;8.50;75.80;;;;;;5133966;27;20504;-68
2022/03/02 11:33:25;;;;;;;26.15;12.63;;;8.40;75.00;;;;;;5134459;27;20397;-66
2022/03/02 11:35:53;;;;;;;20.08;11.52;;;7.70;76.60;;;;;;5134232;27;20027;-66
2022/03/02 11:38:21;;;;;;;20.92;11.43;;;7.70;77.90;;;;;;5133819;27;20026;-65
2022/03/02 11:40:49;;;;;;;19.95;10.77;;;7.70;77.30;;;;;;5133694;27;20377;-67
2022/03/02 11:43:21;;;;;;;22.77;11.75;;;7.70;76.90;;;;;;5137981;27;20050;-66
2022/03/02 11:45:47;;;;;;;18.95;10.70;;;7.70;76.90;;;;;;5139063;27;20402;-66
2022/03/02 11:48:15;;;;;;;18.13;10.52;;;7.70;77.60;;;;;;5138146;27;20026;-68
2022/03/02 11:51:23;;;;;;;22.83;10.95;;;7.90;76.60;;;;;;5137969;27;20114;-68
2022/03/02 11:53:54;;;;;;;17.60;10.05;;;8.20;75.00;;;;;;5057928;28;20036;-68
2022/03/02 11:56:23;;;;;;;19.95;11.20;;;8.40;74.40;;;;;;5058282;28;20024;-68
2022/03/02 11:59:10;;;;;;;20.70;11.32;;;8.60;73.60;;;;;;5109889;27;20034;-68
2022/03/02 12:01:50;;;;;;;17.08;10.45;;;8.60;73.20;;;;;;5137554;27;20015;-66
2022/03/02 12:04:17;;;;;;;17.80;10.95;;;8.70;72.20;;;;;;5138041;27;20030;-70
2022/03/02 12:06:51;;;;;;;17.00;10.43;;;8.60;71.60;;;;;;5138187;27;20023;-68
2022/03/02 12:09:25;;;;;;;18.25;10.65;;;8.50;72.40;;;;;;5136558;27;20023;-67
2022/03/02 12:11:51;;;;;;;20.95;10.60;;;8.60;73.10;;;;;;5136134;27;20019;-67
2022/03/02 12:14:17;;;;;;;18.50;11.00;;;8.50;73.30;;;;;;5136830;27;20072;-68
2022/03/02 12:16:53;;;;;;;19.88;10.98;;;8.50;72.70;;;;;;5136154;27;20364;-67
2022/03/02 12:19:27;;;;;;;22.97;11.40;;;8.50;73.20;;;;;;5137921;27;20019;-66
2022/03/02 12:22:02;;;;;;;19.00;11.05;;;8.20;71.80;;;;;;5137373;27;20019;-67
2022/03/02 12:24:33;;;;;;;21.77;10.48;;;8.10;73.40;;;;;;5137373;27;20102;-67
2022/03/02 12:27:03;;;;;;;19.80;11.25;;;8.00;72.70;;;;;;5136624;27;20071;-67
2022/03/02 12:29:31;;;;;;;18.08;10.90;;;7.90;73.30;;;;;;5137556;27;20532;-68
2022/03/02 12:32:06;;;;;;;17.52;11.23;;;7.80;74.80;;;;;;5137252;27;20448;-66
2022/03/02 12:34:38;;;;;;;18.52;11.18;;;7.70;74.40;;;;;;5135942;27;20038;-68
2022/03/02 12:37:05;;;;;;;19.02;11.32;;;7.80;74.80;;;;;;5135940;27;20027;-68
2022/03/02 12:39:31;;;;;;;19.90;11.50;;;7.70;75.60;;;;;;5135842;27;20542;-68
2022/03/02 12:41:58;;;;;;;19.38;10.57;;;7.70;75.60;;;;;;5135769;27;20027;-68
2022/03/02 12:44:26;;;;;;;20.77;11.52;;;7.60;76.20;;;;;;5136147;27;20492;-68